sensor_id;sensor_type;location;lat;lon;timestamp;P1;durP1;ratioP1;P2;durP2;ratioP2
79792;SDS011;69279;49.072;17.462;2023-07-09T00:01:56;6.40;;;4.65;;
79792;SDS011;69279;49.072;17.462;2023-07-09T00:04:22;6.13;;;4.47;;
79792;SDS011;69279;49.072;17.462;2023-07-09T00:06:47;12.60;;;4.88;;
79792;SDS011;69279;49.072;17.462;2023-07-09T00:09:19;7.57;;;4.78;;
79792;SDS011;69279;49.072;17.462;2023-07-09T00:11:46;6.95;;;4.25;;
79792;SDS011;69279;49.072;17.462;2023-07-09T00:14:13;5.07;;;4.45;;
79792;SDS011;69279;49.072;17.462;2023-07-09T00:16:39;6.43;;;4.85;;
79792;SDS011;69279;49.072;17.462;2023-07-09T00:19:12;5.30;;;4.13;;
79792;SDS011;69279;49.072;17.462;2023-07-09T00:21:41;6.55;;;4.28;;
79792;SDS011;69279;49.072;17.462;2023-07-09T00:24:07;6.18;;;4.50;;
79792;SDS011;69279;49.072;17.462;2023-07-09T00:26:35;6.50;;;4.40;;
79792;SDS011;69279;49.072;17.462;2023-07-09T00:29:03;7.07;;;4.90;;
79792;SDS011;69279;49.072;17.462;2023-07-09T00:31:28;7.57;;;4.78;;
79792;SDS011;69279;49.072;17.462;2023-07-09T00:33:54;6.20;;;4.38;;
79792;SDS011;69279;49.072;17.462;2023-07-09T00:36:30;7.63;;;4.30;;
79792;SDS011;69279;49.072;17.462;2023-07-09T00:38:59;6.63;;;4.95;;
79792;SDS011;69279;49.072;17.462;2023-07-09T00:41:29;6.30;;;4.28;;
79792;SDS011;69279;49.072;17.462;2023-07-09T00:43:57;6.82;;;4.25;;
79792;SDS011;69279;49.072;17.462;2023-07-09T00:48:53;7.10;;;4.70;;
79792;SDS011;69279;49.072;17.462;2023-07-09T00:51:23;6.10;;;5.15;;
79792;SDS011;69279;49.072;17.462;2023-07-09T00:53:51;5.82;;;4.38;;
79792;SDS011;69279;49.072;17.462;2023-07-09T00:56:26;7.13;;;4.75;;
79792;SDS011;69279;49.072;17.462;2023-07-09T00:58:55;6.95;;;4.35;;
79792;SDS011;69279;49.072;17.462;2023-07-09T01:01:21;5.82;;;5.03;;
79792;SDS011;69279;49.072;17.462;2023-07-09T01:03:47;5.70;;;4.07;;
79792;SDS011;69279;49.072;17.462;2023-07-09T01:06:15;4.82;;;4.20;;
79792;SDS011;69279;49.072;17.462;2023-07-09T01:08:44;4.78;;;4.10;;
79792;SDS011;69279;49.072;17.462;2023-07-09T01:11:15;5.38;;;4.43;;
79792;SDS011;69279;49.072;17.462;2023-07-09T01:13:46;5.55;;;4.10;;
79792;SDS011;69279;49.072;17.462;2023-07-09T01:16:22;4.88;;;4.30;;
79792;SDS011;69279;49.072;17.462;2023-07-09T01:18:51;6.05;;;4.43;;
79792;SDS011;69279;49.072;17.462;2023-07-09T01:21:17;6.53;;;4.53;;
79792;SDS011;69279;49.072;17.462;2023-07-09T01:23:43;6.93;;;4.90;;
79792;SDS011;69279;49.072;17.462;2023-07-09T01:26:19;6.38;;;4.80;;
79792;SDS011;69279;49.072;17.462;2023-07-09T01:28:47;5.28;;;4.18;;
79792;SDS011;69279;49.072;17.462;2023-07-09T01:31:14;5.57;;;4.20;;
79792;SDS011;69279;49.072;17.462;2023-07-09T01:33:42;4.82;;;4.05;;
79792;SDS011;69279;49.072;17.462;2023-07-09T01:36:10;5.82;;;4.40;;
79792;SDS011;69279;49.072;17.462;2023-07-09T01:38:38;7.22;;;4.32;;
79792;SDS011;69279;49.072;17.462;2023-07-09T01:41:07;5.78;;;4.50;;
79792;SDS011;69279;49.072;17.462;2023-07-09T01:43:34;4.65;;;4.13;;
79792;SDS011;69279;49.072;17.462;2023-07-09T01:46:00;5.93;;;4.18;;
79792;SDS011;69279;49.072;17.462;2023-07-09T01:48:25;7.32;;;4.30;;
79792;SDS011;69279;49.072;17.462;2023-07-09T01:50:52;6.95;;;4.65;;
79792;SDS011;69279;49.072;17.462;2023-07-09T01:53:19;5.90;;;4.60;;
79792;SDS011;69279;49.072;17.462;2023-07-09T01:55:48;5.75;;;4.60;;
79792;SDS011;69279;49.072;17.462;2023-07-09T01:58:17;6.05;;;4.63;;
79792;SDS011;69279;49.072;17.462;2023-07-09T02:00:42;7.85;;;4.70;;
79792;SDS011;69279;49.072;17.462;2023-07-09T02:03:10;5.97;;;4.47;;
79792;SDS011;69279;49.072;17.462;2023-07-09T02:05:36;5.32;;;4.40;;
79792;SDS011;69279;49.072;17.462;2023-07-09T02:08:01;7.45;;;4.72;;
79792;SDS011;69279;49.072;17.462;2023-07-09T02:10:27;6.68;;;4.78;;
79792;SDS011;69279;49.072;17.462;2023-07-09T02:12:53;7.40;;;5.00;;
79792;SDS011;69279;49.072;17.462;2023-07-09T02:15:19;7.45;;;4.50;;
79792;SDS011;69279;49.072;17.462;2023-07-09T02:17:44;6.35;;;4.93;;
79792;SDS011;69279;49.072;17.462;2023-07-09T02:20:10;5.10;;;4.45;;
79792;SDS011;69279;49.072;17.462;2023-07-09T02:22:36;5.80;;;4.47;;
79792;SDS011;69279;49.072;17.462;2023-07-09T02:25:03;7.32;;;5.20;;
79792;SDS011;69279;49.072;17.462;2023-07-09T02:27:28;6.10;;;4.90;;
79792;SDS011;69279;49.072;17.462;2023-07-09T02:29:54;7.40;;;5.32;;
79792;SDS011;69279;49.072;17.462;2023-07-09T02:32:23;6.68;;;5.13;;
79792;SDS011;69279;49.072;17.462;2023-07-09T02:34:51;6.07;;;5.00;;
79792;SDS011;69279;49.072;17.462;2023-07-09T02:37:18;5.88;;;5.28;;
79792;SDS011;69279;49.072;17.462;2023-07-09T02:39:44;6.45;;;4.70;;
79792;SDS011;69279;49.072;17.462;2023-07-09T02:42:10;5.80;;;5.20;;
79792;SDS011;69279;49.072;17.462;2023-07-09T02:44:36;6.80;;;4.72;;
79792;SDS011;69279;49.072;17.462;2023-07-09T02:47:02;6.10;;;4.85;;
79792;SDS011;69279;49.072;17.462;2023-07-09T02:49:27;7.88;;;4.80;;
79792;SDS011;69279;49.072;17.462;2023-07-09T02:51:53;5.97;;;4.72;;
79792;SDS011;69279;49.072;17.462;2023-07-09T02:54:18;5.20;;;4.43;;
79792;SDS011;69279;49.072;17.462;2023-07-09T02:56:44;5.65;;;4.55;;
79792;SDS011;69279;49.072;17.462;2023-07-09T02:59:09;6.35;;;4.53;;
79792;SDS011;69279;49.072;17.462;2023-07-09T03:01:36;5.75;;;4.72;;
79792;SDS011;69279;49.072;17.462;2023-07-09T03:04:02;7.18;;;4.82;;
79792;SDS011;69279;49.072;17.462;2023-07-09T03:06:28;5.40;;;4.35;;
79792;SDS011;69279;49.072;17.462;2023-07-09T03:08:54;6.03;;;5.13;;
79792;SDS011;69279;49.072;17.462;2023-07-09T03:11:20;6.22;;;4.45;;
79792;SDS011;69279;49.072;17.462;2023-07-09T03:13:47;8.00;;;5.20;;
79792;SDS011;69279;49.072;17.462;2023-07-09T03:16:13;6.90;;;4.88;;
79792;SDS011;69279;49.072;17.462;2023-07-09T03:18:39;8.35;;;4.70;;
79792;SDS011;69279;49.072;17.462;2023-07-09T03:21:05;9.40;;;5.22;;
79792;SDS011;69279;49.072;17.462;2023-07-09T03:23:31;6.43;;;4.95;;
79792;SDS011;69279;49.072;17.462;2023-07-09T03:25:57;10.68;;;4.88;;
79792;SDS011;69279;49.072;17.462;2023-07-09T03:28:22;8.75;;;4.63;;
79792;SDS011;69279;49.072;17.462;2023-07-09T03:30:48;7.20;;;5.30;;
79792;SDS011;69279;49.072;17.462;2023-07-09T03:33:14;6.15;;;4.75;;
79792;SDS011;69279;49.072;17.462;2023-07-09T03:35:41;7.20;;;4.50;;
79792;SDS011;69279;49.072;17.462;2023-07-09T03:38:07;7.38;;;4.78;;
79792;SDS011;69279;49.072;17.462;2023-07-09T03:40:33;5.82;;;4.68;;
79792;SDS011;69279;49.072;17.462;2023-07-09T03:42:59;9.07;;;5.30;;
79792;SDS011;69279;49.072;17.462;2023-07-09T03:45:25;6.85;;;4.82;;
79792;SDS011;69279;49.072;17.462;2023-07-09T03:47:50;7.18;;;5.22;;
79792;SDS011;69279;49.072;17.462;2023-07-09T03:50:16;8.02;;;5.15;;
79792;SDS011;69279;49.072;17.462;2023-07-09T03:52:41;8.43;;;5.30;;
79792;SDS011;69279;49.072;17.462;2023-07-09T03:55:07;6.43;;;5.20;;
79792;SDS011;69279;49.072;17.462;2023-07-09T03:57:34;6.32;;;5.38;;
79792;SDS011;69279;49.072;17.462;2023-07-09T04:00:00;7.65;;;4.60;;
79792;SDS011;69279;49.072;17.462;2023-07-09T04:02:26;6.88;;;5.00;;
79792;SDS011;69279;49.072;17.462;2023-07-09T04:04:51;6.65;;;5.28;;
79792;SDS011;69279;49.072;17.462;2023-07-09T04:07:16;6.07;;;4.75;;
79792;SDS011;69279;49.072;17.462;2023-07-09T04:09:42;6.63;;;4.78;;
79792;SDS011;69279;49.072;17.462;2023-07-09T04:12:08;7.45;;;5.35;;
79792;SDS011;69279;49.072;17.462;2023-07-09T04:14:34;7.00;;;5.68;;
79792;SDS011;69279;49.072;17.462;2023-07-09T04:16:59;7.68;;;5.60;;
79792;SDS011;69279;49.072;17.462;2023-07-09T04:19:25;8.43;;;5.90;;
79792;SDS011;69279;49.072;17.462;2023-07-09T04:21:50;7.45;;;5.47;;
79792;SDS011;69279;49.072;17.462;2023-07-09T04:24:17;7.13;;;5.45;;
79792;SDS011;69279;49.072;17.462;2023-07-09T04:26:43;6.78;;;5.65;;
79792;SDS011;69279;49.072;17.462;2023-07-09T04:29:09;6.18;;;5.32;;
79792;SDS011;69279;49.072;17.462;2023-07-09T04:31:35;6.75;;;5.22;;
79792;SDS011;69279;49.072;17.462;2023-07-09T04:34:00;6.22;;;5.20;;
79792;SDS011;69279;49.072;17.462;2023-07-09T04:36:26;8.20;;;5.45;;
79792;SDS011;69279;49.072;17.462;2023-07-09T04:38:52;7.00;;;5.10;;
79792;SDS011;69279;49.072;17.462;2023-07-09T04:41:17;7.65;;;5.38;;
79792;SDS011;69279;49.072;17.462;2023-07-09T04:43:43;8.38;;;4.90;;
79792;SDS011;69279;49.072;17.462;2023-07-09T04:46:08;7.32;;;5.07;;
79792;SDS011;69279;49.072;17.462;2023-07-09T04:48:34;6.20;;;4.70;;
79792;SDS011;69279;49.072;17.462;2023-07-09T04:50:59;7.13;;;5.43;;
79792;SDS011;69279;49.072;17.462;2023-07-09T04:53:25;6.32;;;4.88;;
79792;SDS011;69279;49.072;17.462;2023-07-09T04:55:50;7.20;;;4.93;;
79792;SDS011;69279;49.072;17.462;2023-07-09T04:58:16;6.75;;;5.07;;
79792;SDS011;69279;49.072;17.462;2023-07-09T05:00:43;8.93;;;6.32;;
79792;SDS011;69279;49.072;17.462;2023-07-09T05:03:08;7.78;;;5.68;;
79792;SDS011;69279;49.072;17.462;2023-07-09T05:05:34;8.15;;;5.07;;
79792;SDS011;69279;49.072;17.462;2023-07-09T05:08:00;6.55;;;4.88;;
79792;SDS011;69279;49.072;17.462;2023-07-09T05:10:26;8.32;;;5.20;;
79792;SDS011;69279;49.072;17.462;2023-07-09T05:12:53;6.68;;;5.40;;
79792;SDS011;69279;49.072;17.462;2023-07-09T05:15:20;8.88;;;5.57;;
79792;SDS011;69279;49.072;17.462;2023-07-09T05:17:46;6.13;;;4.97;;
79792;SDS011;69279;49.072;17.462;2023-07-09T05:20:12;6.18;;;5.07;;
79792;SDS011;69279;49.072;17.462;2023-07-09T05:22:38;8.77;;;5.65;;
79792;SDS011;69279;49.072;17.462;2023-07-09T05:25:03;6.63;;;5.18;;
79792;SDS011;69279;49.072;17.462;2023-07-09T05:27:29;10.60;;;5.32;;
79792;SDS011;69279;49.072;17.462;2023-07-09T05:29:54;6.65;;;5.30;;
79792;SDS011;69279;49.072;17.462;2023-07-09T05:32:19;8.98;;;5.40;;
79792;SDS011;69279;49.072;17.462;2023-07-09T05:34:45;8.65;;;5.40;;
79792;SDS011;69279;49.072;17.462;2023-07-09T05:37:10;7.15;;;5.40;;
79792;SDS011;69279;49.072;17.462;2023-07-09T05:39:35;12.40;;;5.70;;
79792;SDS011;69279;49.072;17.462;2023-07-09T05:42:01;8.27;;;5.65;;
79792;SDS011;69279;49.072;17.462;2023-07-09T05:44:26;6.95;;;5.53;;
79792;SDS011;69279;49.072;17.462;2023-07-09T05:46:51;8.30;;;5.43;;
79792;SDS011;69279;49.072;17.462;2023-07-09T05:49:17;10.20;;;6.07;;
79792;SDS011;69279;49.072;17.462;2023-07-09T05:51:42;9.02;;;5.60;;
79792;SDS011;69279;49.072;17.462;2023-07-09T05:54:08;7.63;;;5.90;;
79792;SDS011;69279;49.072;17.462;2023-07-09T05:56:33;6.95;;;5.40;;
79792;SDS011;69279;49.072;17.462;2023-07-09T05:58:59;5.90;;;5.30;;
79792;SDS011;69279;49.072;17.462;2023-07-09T06:01:24;5.20;;;4.70;;
79792;SDS011;69279;49.072;17.462;2023-07-09T06:03:52;6.00;;;5.28;;
79792;SDS011;69279;49.072;17.462;2023-07-09T06:06:18;6.03;;;4.07;;
79792;SDS011;69279;49.072;17.462;2023-07-09T06:08:43;5.45;;;4.60;;
79792;SDS011;69279;49.072;17.462;2023-07-09T06:11:09;5.05;;;4.20;;
79792;SDS011;69279;49.072;17.462;2023-07-09T06:13:34;6.63;;;4.50;;
79792;SDS011;69279;49.072;17.462;2023-07-09T06:16:01;5.05;;;3.92;;
79792;SDS011;69279;49.072;17.462;2023-07-09T06:18:26;4.78;;;4.22;;
79792;SDS011;69279;49.072;17.462;2023-07-09T06:20:56;6.22;;;4.20;;
79792;SDS011;69279;49.072;17.462;2023-07-09T06:23:23;4.80;;;4.30;;
79792;SDS011;69279;49.072;17.462;2023-07-09T06:25:48;5.07;;;4.53;;
79792;SDS011;69279;49.072;17.462;2023-07-09T06:28:16;5.05;;;4.25;;
79792;SDS011;69279;49.072;17.462;2023-07-09T06:30:42;5.47;;;4.68;;
79792;SDS011;69279;49.072;17.462;2023-07-09T06:33:08;5.70;;;4.13;;
79792;SDS011;69279;49.072;17.462;2023-07-09T06:35:34;6.05;;;4.85;;
79792;SDS011;69279;49.072;17.462;2023-07-09T06:38:00;5.80;;;4.55;;
79792;SDS011;69279;49.072;17.462;2023-07-09T06:40:25;5.80;;;4.80;;
79792;SDS011;69279;49.072;17.462;2023-07-09T06:42:50;4.68;;;4.07;;
79792;SDS011;69279;49.072;17.462;2023-07-09T06:45:16;8.60;;;4.78;;
79792;SDS011;69279;49.072;17.462;2023-07-09T06:47:42;4.95;;;4.22;;
79792;SDS011;69279;49.072;17.462;2023-07-09T06:50:08;5.95;;;4.75;;
79792;SDS011;69279;49.072;17.462;2023-07-09T06:52:33;5.18;;;4.40;;
79792;SDS011;69279;49.072;17.462;2023-07-09T06:54:59;5.95;;;4.55;;
79792;SDS011;69279;49.072;17.462;2023-07-09T06:57:24;4.93;;;4.45;;
79792;SDS011;69279;49.072;17.462;2023-07-09T06:59:50;6.50;;;5.88;;
79792;SDS011;69279;49.072;17.462;2023-07-09T07:02:15;6.53;;;5.25;;
79792;SDS011;69279;49.072;17.462;2023-07-09T07:04:40;5.82;;;4.47;;
79792;SDS011;69279;49.072;17.462;2023-07-09T07:07:06;5.75;;;4.40;;
79792;SDS011;69279;49.072;17.462;2023-07-09T07:09:32;5.20;;;4.68;;
79792;SDS011;69279;49.072;17.462;2023-07-09T07:11:57;5.95;;;4.43;;
79792;SDS011;69279;49.072;17.462;2023-07-09T07:14:23;6.05;;;4.82;;
79792;SDS011;69279;49.072;17.462;2023-07-09T07:16:48;5.97;;;4.70;;
79792;SDS011;69279;49.072;17.462;2023-07-09T07:19:14;5.07;;;4.18;;
79792;SDS011;69279;49.072;17.462;2023-07-09T07:21:39;5.60;;;4.43;;
79792;SDS011;69279;49.072;17.462;2023-07-09T07:24:04;6.65;;;4.30;;
79792;SDS011;69279;49.072;17.462;2023-07-09T07:26:30;5.05;;;4.55;;
79792;SDS011;69279;49.072;17.462;2023-07-09T07:28:55;5.10;;;4.50;;
79792;SDS011;69279;49.072;17.462;2023-07-09T07:31:20;5.70;;;4.40;;
79792;SDS011;69279;49.072;17.462;2023-07-09T07:33:46;8.85;;;5.28;;
79792;SDS011;69279;49.072;17.462;2023-07-09T07:36:11;6.00;;;4.78;;
79792;SDS011;69279;49.072;17.462;2023-07-09T07:38:37;5.25;;;4.07;;
79792;SDS011;69279;49.072;17.462;2023-07-09T07:41:02;4.82;;;4.35;;
79792;SDS011;69279;49.072;17.462;2023-07-09T07:43:28;4.47;;;4.10;;
79792;SDS011;69279;49.072;17.462;2023-07-09T07:45:53;5.32;;;4.18;;
79792;SDS011;69279;49.072;17.462;2023-07-09T07:48:18;5.03;;;4.47;;
79792;SDS011;69279;49.072;17.462;2023-07-09T07:50:45;4.43;;;4.00;;
79792;SDS011;69279;49.072;17.462;2023-07-09T07:53:13;5.45;;;4.07;;
79792;SDS011;69279;49.072;17.462;2023-07-09T07:55:39;4.22;;;3.85;;
79792;SDS011;69279;49.072;17.462;2023-07-09T07:58:05;5.13;;;3.92;;
79792;SDS011;69279;49.072;17.462;2023-07-09T08:00:30;4.40;;;3.90;;
79792;SDS011;69279;49.072;17.462;2023-07-09T08:02:56;6.20;;;3.92;;
79792;SDS011;69279;49.072;17.462;2023-07-09T08:05:21;4.00;;;3.60;;
79792;SDS011;69279;49.072;17.462;2023-07-09T08:07:49;4.70;;;3.88;;
79792;SDS011;69279;49.072;17.462;2023-07-09T08:10:15;5.20;;;3.65;;
79792;SDS011;69279;49.072;17.462;2023-07-09T08:12:40;4.65;;;4.13;;
79792;SDS011;69279;49.072;17.462;2023-07-09T08:15:06;4.35;;;3.90;;
79792;SDS011;69279;49.072;17.462;2023-07-09T08:17:33;4.50;;;4.07;;
79792;SDS011;69279;49.072;17.462;2023-07-09T08:19:58;5.32;;;4.28;;
79792;SDS011;69279;49.072;17.462;2023-07-09T08:22:24;4.05;;;3.67;;
79792;SDS011;69279;49.072;17.462;2023-07-09T08:24:49;4.15;;;3.75;;
79792;SDS011;69279;49.072;17.462;2023-07-09T08:27:15;4.90;;;4.50;;
79792;SDS011;69279;49.072;17.462;2023-07-09T08:29:40;4.68;;;4.25;;
79792;SDS011;69279;49.072;17.462;2023-07-09T08:32:07;4.03;;;3.67;;
79792;SDS011;69279;49.072;17.462;2023-07-09T08:34:33;4.85;;;3.97;;
79792;SDS011;69279;49.072;17.462;2023-07-09T08:36:59;5.40;;;4.00;;
79792;SDS011;69279;49.072;17.462;2023-07-09T08:39:24;4.40;;;4.00;;
79792;SDS011;69279;49.072;17.462;2023-07-09T08:42:00;4.38;;;3.97;;
79792;SDS011;69279;49.072;17.462;2023-07-09T08:45:11;4.72;;;3.90;;
79792;SDS011;69279;49.072;17.462;2023-07-09T08:53:02;4.75;;;3.55;;
79792;SDS011;69279;49.072;17.462;2023-07-09T08:55:29;6.35;;;4.03;;
79792;SDS011;69279;49.072;17.462;2023-07-09T08:58:05;4.63;;;4.13;;
79792;SDS011;69279;49.072;17.462;2023-07-09T09:00:40;5.00;;;3.83;;
79792;SDS011;69279;49.072;17.462;2023-07-09T09:03:10;4.95;;;3.85;;
79792;SDS011;69279;49.072;17.462;2023-07-09T09:05:41;4.65;;;3.80;;
79792;SDS011;69279;49.072;17.462;2023-07-09T09:08:11;5.28;;;4.00;;
79792;SDS011;69279;49.072;17.462;2023-07-09T09:10:47;4.50;;;4.10;;
79792;SDS011;69279;49.072;17.462;2023-07-09T09:13:16;7.45;;;4.20;;
79792;SDS011;69279;49.072;17.462;2023-07-09T09:15:46;5.10;;;4.13;;
79792;SDS011;69279;49.072;17.462;2023-07-09T09:20:45;4.18;;;3.78;;
79792;SDS011;69279;49.072;17.462;2023-07-09T09:23:13;3.88;;;3.47;;
79792;SDS011;69279;49.072;17.462;2023-07-09T09:25:44;4.63;;;4.07;;
79792;SDS011;69279;49.072;17.462;2023-07-09T09:28:12;4.28;;;3.88;;
79792;SDS011;69279;49.072;17.462;2023-07-09T09:30:39;4.80;;;4.00;;
79792;SDS011;69279;49.072;17.462;2023-07-09T09:33:08;3.97;;;3.58;;
79792;SDS011;69279;49.072;17.462;2023-07-09T09:35:35;4.05;;;3.75;;
79792;SDS011;69279;49.072;17.462;2023-07-09T09:38:09;4.32;;;3.92;;
79792;SDS011;69279;49.072;17.462;2023-07-09T09:40:40;4.05;;;3.50;;
79792;SDS011;69279;49.072;17.462;2023-07-09T09:43:16;3.80;;;3.42;;
79792;SDS011;69279;49.072;17.462;2023-07-09T09:45:45;4.20;;;3.75;;
79792;SDS011;69279;49.072;17.462;2023-07-09T09:48:20;4.07;;;3.78;;
79792;SDS011;69279;49.072;17.462;2023-07-09T09:50:52;4.13;;;3.55;;
79792;SDS011;69279;49.072;17.462;2023-07-09T09:53:23;5.38;;;3.92;;
79792;SDS011;69279;49.072;17.462;2023-07-09T09:55:50;4.00;;;3.60;;
79792;SDS011;69279;49.072;17.462;2023-07-09T09:58:18;4.05;;;3.75;;
79792;SDS011;69279;49.072;17.462;2023-07-09T10:00:48;5.10;;;3.53;;
79792;SDS011;69279;49.072;17.462;2023-07-09T10:03:16;3.78;;;3.38;;
79792;SDS011;69279;49.072;17.462;2023-07-09T10:12:04;4.18;;;3.78;;
79792;SDS011;69279;49.072;17.462;2023-07-09T10:14:21;4.97;;;3.33;;
79792;SDS011;69279;49.072;17.462;2023-07-09T10:16:48;4.00;;;3.70;;
79792;SDS011;69279;49.072;17.462;2023-07-09T10:19:21;3.88;;;3.58;;
79792;SDS011;69279;49.072;17.462;2023-07-09T10:21:57;4.32;;;3.92;;
79792;SDS011;69279;49.072;17.462;2023-07-09T10:27:11;6.50;;;3.92;;
79792;SDS011;69279;49.072;17.462;2023-07-09T10:37:21;3.70;;;3.40;;
79792;SDS011;69279;49.072;17.462;2023-07-09T10:39:49;4.45;;;3.22;;
79792;SDS011;69279;49.072;17.462;2023-07-09T10:42:18;3.83;;;3.53;;
79792;SDS011;69279;49.072;17.462;2023-07-09T10:44:49;4.00;;;3.70;;
79792;SDS011;69279;49.072;17.462;2023-07-09T10:47:29;3.75;;;3.33;;
79792;SDS011;69279;49.072;17.462;2023-07-09T10:49:57;3.47;;;3.17;;
79792;SDS011;69279;49.072;17.462;2023-07-09T10:52:25;3.88;;;3.17;;
79792;SDS011;69279;49.072;17.462;2023-07-09T10:57:25;3.40;;;3.10;;
79792;SDS011;69279;49.072;17.462;2023-07-09T10:59:54;4.20;;;3.80;;
79792;SDS011;69279;49.072;17.462;2023-07-09T11:02:33;3.78;;;3.42;;
79792;SDS011;69279;49.072;17.462;2023-07-09T11:05:04;4.68;;;3.40;;
79792;SDS011;69279;49.072;17.462;2023-07-09T11:07:33;4.03;;;3.47;;
79792;SDS011;69279;49.072;17.462;2023-07-09T11:10:04;3.53;;;3.22;;
79792;SDS011;69279;49.072;17.462;2023-07-09T11:12:34;4.60;;;3.97;;
79792;SDS011;69279;49.072;17.462;2023-07-09T11:15:06;3.72;;;3.42;;
79792;SDS011;69279;49.072;17.462;2023-07-09T11:17:36;4.22;;;3.53;;
79792;SDS011;69279;49.072;17.462;2023-07-09T11:20:17;3.80;;;3.50;;
79792;SDS011;69279;49.072;17.462;2023-07-09T11:22:54;4.07;;;3.72;;
79792;SDS011;69279;49.072;17.462;2023-07-09T11:25:30;3.85;;;3.55;;
79792;SDS011;69279;49.072;17.462;2023-07-09T11:28:04;5.00;;;3.92;;
79792;SDS011;69279;49.072;17.462;2023-07-09T11:30:31;4.28;;;3.88;;
79792;SDS011;69279;49.072;17.462;2023-07-09T11:33:15;4.10;;;3.70;;
79792;SDS011;69279;49.072;17.462;2023-07-09T11:35:47;4.53;;;4.10;;
79792;SDS011;69279;49.072;17.462;2023-07-09T11:38:16;4.25;;;3.63;;
79792;SDS011;69279;49.072;17.462;2023-07-09T11:40:55;4.40;;;4.00;;
79792;SDS011;69279;49.072;17.462;2023-07-09T11:43:28;4.25;;;3.90;;
79792;SDS011;69279;49.072;17.462;2023-07-09T11:46:21;4.53;;;3.95;;
79792;SDS011;69279;49.072;17.462;2023-07-09T11:48:49;4.63;;;3.78;;
79792;SDS011;69279;49.072;17.462;2023-07-09T11:51:16;3.58;;;3.28;;
79792;SDS011;69279;49.072;17.462;2023-07-09T11:56:21;5.97;;;4.32;;
79792;SDS011;69279;49.072;17.462;2023-07-09T11:58:48;5.35;;;3.85;;
79792;SDS011;69279;49.072;17.462;2023-07-09T12:01:15;4.88;;;4.47;;
79792;SDS011;69279;49.072;17.462;2023-07-09T12:03:43;4.72;;;4.32;;
79792;SDS011;69279;49.072;17.462;2023-07-09T12:06:20;4.32;;;3.95;;
79792;SDS011;69279;49.072;17.462;2023-07-09T12:08:48;4.10;;;3.80;;
79792;SDS011;69279;49.072;17.462;2023-07-09T12:11:28;6.57;;;4.00;;
79792;SDS011;69279;49.072;17.462;2023-07-09T12:14:00;7.75;;;4.20;;
79792;SDS011;69279;49.072;17.462;2023-07-09T12:16:28;4.53;;;4.13;;
79792;SDS011;69279;49.072;17.462;2023-07-09T12:18:55;4.97;;;4.00;;
79792;SDS011;69279;49.072;17.462;2023-07-09T12:21:21;4.47;;;4.07;;
79792;SDS011;69279;49.072;17.462;2023-07-09T12:23:47;4.85;;;4.00;;
79792;SDS011;69279;49.072;17.462;2023-07-09T12:26:14;5.65;;;3.60;;
79792;SDS011;69279;49.072;17.462;2023-07-09T12:28:40;4.45;;;4.05;;
79792;SDS011;69279;49.072;17.462;2023-07-09T12:31:11;4.50;;;4.10;;
79792;SDS011;69279;49.072;17.462;2023-07-09T12:33:46;4.45;;;3.75;;
79792;SDS011;69279;49.072;17.462;2023-07-09T12:36:13;5.97;;;3.72;;
79792;SDS011;69279;49.072;17.462;2023-07-09T12:38:40;4.10;;;3.67;;
79792;SDS011;69279;49.072;17.462;2023-07-09T12:41:12;4.50;;;3.90;;
79792;SDS011;69279;49.072;17.462;2023-07-09T12:43:42;4.43;;;3.50;;
79792;SDS011;69279;49.072;17.462;2023-07-09T12:46:09;4.53;;;3.95;;
79792;SDS011;69279;49.072;17.462;2023-07-09T12:48:35;4.20;;;3.90;;
79792;SDS011;69279;49.072;17.462;2023-07-09T12:51:01;3.88;;;3.58;;
79792;SDS011;69279;49.072;17.462;2023-07-09T12:53:32;4.28;;;3.85;;
79792;SDS011;69279;49.072;17.462;2023-07-09T12:55:59;4.35;;;3.95;;
79792;SDS011;69279;49.072;17.462;2023-07-09T12:58:27;3.58;;;3.28;;
79792;SDS011;69279;49.072;17.462;2023-07-09T13:00:55;6.00;;;3.63;;
79792;SDS011;69279;49.072;17.462;2023-07-09T13:03:24;4.22;;;3.80;;
79792;SDS011;69279;49.072;17.462;2023-07-09T13:05:58;3.75;;;3.45;;
79792;SDS011;69279;49.072;17.462;2023-07-09T13:08:24;3.47;;;3.17;;
79792;SDS011;69279;49.072;17.462;2023-07-09T13:10:51;4.00;;;3.60;;
79792;SDS011;69279;49.072;17.462;2023-07-09T13:13:17;5.28;;;3.88;;
79792;SDS011;69279;49.072;17.462;2023-07-09T13:15:47;5.63;;;3.80;;
79792;SDS011;69279;49.072;17.462;2023-07-09T13:18:14;5.03;;;4.13;;
79792;SDS011;69279;49.072;17.462;2023-07-09T13:20:43;4.20;;;3.70;;
79792;SDS011;69279;49.072;17.462;2023-07-09T13:23:16;4.20;;;3.80;;
79792;SDS011;69279;49.072;17.462;2023-07-09T13:25:43;3.85;;;3.50;;
79792;SDS011;69279;49.072;17.462;2023-07-09T13:28:42;4.25;;;3.85;;
79792;SDS011;69279;49.072;17.462;2023-07-09T13:31:11;3.92;;;3.60;;
79792;SDS011;69279;49.072;17.462;2023-07-09T13:33:39;3.90;;;3.60;;
79792;SDS011;69279;49.072;17.462;2023-07-09T13:36:05;4.22;;;3.55;;
79792;SDS011;69279;49.072;17.462;2023-07-09T13:38:32;3.72;;;3.42;;
79792;SDS011;69279;49.072;17.462;2023-07-09T13:41:00;4.45;;;3.70;;
79792;SDS011;69279;49.072;17.462;2023-07-09T13:43:31;4.32;;;3.38;;
79792;SDS011;69279;49.072;17.462;2023-07-09T13:45:59;3.97;;;3.33;;
79792;SDS011;69279;49.072;17.462;2023-07-09T13:48:25;3.90;;;3.50;;
79792;SDS011;69279;49.072;17.462;2023-07-09T13:50:51;3.65;;;3.25;;
79792;SDS011;69279;49.072;17.462;2023-07-09T13:53:18;3.55;;;3.25;;
79792;SDS011;69279;49.072;17.462;2023-07-09T13:55:46;4.35;;;3.50;;
79792;SDS011;69279;49.072;17.462;2023-07-09T13:58:14;5.90;;;3.75;;
79792;SDS011;69279;49.072;17.462;2023-07-09T14:00:41;4.20;;;3.40;;
79792;SDS011;69279;49.072;17.462;2023-07-09T14:03:09;4.13;;;3.72;;
79792;SDS011;69279;49.072;17.462;2023-07-09T14:05:39;5.47;;;3.85;;
79792;SDS011;69279;49.072;17.462;2023-07-09T14:08:06;4.07;;;3.67;;
79792;SDS011;69279;49.072;17.462;2023-07-09T14:10:32;4.28;;;3.70;;
79792;SDS011;69279;49.072;17.462;2023-07-09T14:12:58;4.32;;;3.88;;
79792;SDS011;69279;49.072;17.462;2023-07-09T14:15:24;3.90;;;3.53;;
79792;SDS011;69279;49.072;17.462;2023-07-09T14:17:49;4.50;;;3.83;;
79792;SDS011;69279;49.072;17.462;2023-07-09T14:20:16;3.78;;;3.38;;
79792;SDS011;69279;49.072;17.462;2023-07-09T14:22:42;3.80;;;3.25;;
79792;SDS011;69279;49.072;17.462;2023-07-09T14:25:15;5.20;;;4.20;;
79792;SDS011;69279;49.072;17.462;2023-07-09T14:27:43;3.35;;;3.05;;
79792;SDS011;69279;49.072;17.462;2023-07-09T14:30:09;4.03;;;3.72;;
79792;SDS011;69279;49.072;17.462;2023-07-09T14:32:39;6.22;;;4.13;;
79792;SDS011;69279;49.072;17.462;2023-07-09T14:35:14;7.75;;;3.60;;
79792;SDS011;69279;49.072;17.462;2023-07-09T14:37:41;4.18;;;3.42;;
79792;SDS011;69279;49.072;17.462;2023-07-09T14:40:08;5.03;;;3.75;;
79792;SDS011;69279;49.072;17.462;2023-07-09T14:42:34;4.55;;;3.80;;
79792;SDS011;69279;49.072;17.462;2023-07-09T14:45:00;4.00;;;3.60;;
79792;SDS011;69279;49.072;17.462;2023-07-09T14:47:25;4.07;;;3.55;;
79792;SDS011;69279;49.072;17.462;2023-07-09T14:49:53;3.95;;;3.55;;
79792;SDS011;69279;49.072;17.462;2023-07-09T14:52:19;4.30;;;3.70;;
79792;SDS011;69279;49.072;17.462;2023-07-09T14:54:46;4.15;;;3.75;;
79792;SDS011;69279;49.072;17.462;2023-07-09T14:57:17;8.55;;;3.58;;
79792;SDS011;69279;49.072;17.462;2023-07-09T14:59:44;4.22;;;3.53;;
79792;SDS011;69279;49.072;17.462;2023-07-09T15:02:21;4.00;;;3.60;;
79792;SDS011;69279;49.072;17.462;2023-07-09T15:04:47;4.20;;;3.90;;
79792;SDS011;69279;49.072;17.462;2023-07-09T15:07:12;4.57;;;3.65;;
79792;SDS011;69279;49.072;17.462;2023-07-09T15:09:39;4.07;;;3.67;;